Time;durP1;ratioP1;P1;durP2;ratioP2;P2;SDS_P1;SDS_P2;PMS_P1;PMS_P2;Temp;Humidity;BMP_temperature;BMP_pressure;BME280_temperature;BME280_humidity;BME280_pressure;Samples;Min_cycle;Max_cycle;Signal;HPM_P1;HPM_P2
2022/04/07 00:01:28;;;;;;;2.00;1.80;;;;;;;9.80;100.00;153877.50;5029983;28;20566;-78
2022/04/07 00:04:04;;;;;;;2.00;1.80;;;;;;;9.77;100.00;153869.75;5014762;28;20455;-80
2022/04/07 00:06:39;;;;;;;1.63;1.50;;;;;;;9.80;100.00;153877.50;5017208;28;20790;-80
2022/04/07 00:09:15;;;;;;;1.90;1.30;;;;;;;9.72;100.00;153856.81;5014688;28;20463;-80
2022/04/07 00:11:51;;;;;;;4.43;1.63;;;;;;;9.70;100.00;153851.63;5024593;28;20537;-79
2022/04/07 00:14:29;;;;;;;1.63;1.27;;;;;;;9.64;100.00;153836.09;5022137;28;20455;-79
2022/04/07 00:17:05;;;;;;;2.13;1.50;;;;;;;9.64;100.00;153836.09;5027307;28;20808;-80
2022/04/07 00:19:40;;;;;;;2.10;1.70;;;;;;;9.59;100.00;153821.88;5026510;28;20447;-80
2022/04/07 00:22:16;;;;;;;2.20;1.87;;;;;;;9.58;100.00;153819.31;5024483;28;20451;-80
2022/04/07 00:24:51;;;;;;;2.33;1.50;;;;;;;9.48;100.00;153793.41;5008737;28;20954;-79
2022/04/07 00:27:28;;;;;;;2.03;1.83;;;;;;;9.47;100.00;153792.13;5011757;28;20444;-80
2022/04/07 00:30:09;;;;;;;1.80;1.50;;;;;;;9.44;100.00;153784.38;5014060;28;20467;-80
2022/04/07 00:32:45;;;;;;;1.53;1.37;;;;;;;9.39;100.00;153771.44;5014001;28;20498;-79
2022/04/07 00:35:22;;;;;;;1.13;0.97;;;;;;;9.43;100.00;153781.75;5009076;28;20431;-80
2022/04/07 00:37:58;;;;;;;2.00;1.40;;;;;;;9.37;100.00;153766.22;5022654;28;20466;-80
2022/04/07 00:40:34;;;;;;;1.60;1.17;;;;;;;9.39;100.00;153771.44;5032992;28;20988;-79
2022/04/07 00:43:09;;;;;;;1.50;1.30;;;;;;;9.34;100.00;153757.22;5025625;28;20461;-79
2022/04/07 00:45:46;;;;;;;1.90;1.30;;;;;;;9.37;100.00;153764.97;5029046;28;20836;-80
2022/04/07 00:48:22;;;;;;;2.00;1.40;;;;;;;9.38;100.00;153768.84;5014063;28;20503;-79
2022/04/07 00:50:58;;;;;;;2.17;1.60;;;;;;;9.41;100.00;153775.31;5023725;28;20788;-80
2022/04/07 00:53:33;;;;;;;1.60;1.40;;;;;;;9.39;100.00;153771.44;5007637;28;20443;-79
2022/04/07 00:56:10;;;;;;;1.40;1.30;;;;;;;9.48;100.00;153793.41;5026048;28;20459;-80
2022/04/07 00:58:47;;;;;;;1.30;1.00;;;;;;;9.48;100.00;153793.41;5013958;28;20435;-79
2022/04/07 01:01:28;;;;;;;1.83;1.50;;;;;;;9.46;100.00;153789.53;5030054;28;20922;-79
2022/04/07 01:04:03;;;;;;;1.43;1.30;;;;;;;9.45;100.00;153786.94;5013024;28;20440;-79
2022/04/07 01:06:41;;;;;;;1.60;1.30;;;;;;;9.46;100.00;153789.53;5029883;28;20451;-79
2022/04/07 01:09:19;;;;;;;1.57;1.30;;;;;;;9.42;100.00;153779.22;5009623;28;20551;-79
2022/04/07 01:11:54;;;;;;;1.67;1.27;;;;;;;9.42;100.00;153779.22;5010343;28;21012;-79
2022/04/07 01:14:30;;;;;;;1.80;1.50;;;;;;;9.41;100.00;153775.31;5015426;28;20419;-79
2022/04/07 01:17:07;;;;;;;1.30;1.20;;;;;;;9.39;100.00;153771.44;5008620;28;20493;-79
2022/04/07 01:19:42;;;;;;;1.73;1.30;;;;;;;9.29;100.00;153745.59;5011033;28;20523;-79
2022/04/07 01:22:18;;;;;;;1.97;1.70;;;;;;;9.27;100.00;153740.38;5013892;28;20455;-79
2022/04/07 01:24:56;;;;;;;2.00;1.40;;;;;;;9.28;100.00;153742.97;5025986;28;20440;-79
2022/04/07 01:27:32;;;;;;;1.50;1.40;;;;;;;9.28;100.00;153742.97;5008473;28;20440;-79
2022/04/07 01:30:09;;;;;;;2.20;1.70;;;;;;;9.28;100.00;153741.69;5011072;28;20463;-79
2022/04/07 01:32:46;;;;;;;1.60;1.50;;;;;;;9.28;100.00;153742.97;5024535;28;20448;-79
2022/04/07 01:35:23;;;;;;;2.60;2.23;;;;;;;9.27;100.00;153740.38;5022159;28;20477;-79
2022/04/07 01:38:00;;;;;;;1.90;1.70;;;;;;;9.27;100.00;153740.38;4998484;28;20475;-79
2022/04/07 01:40:38;;;;;;;2.27;1.97;;;;;;;9.24;100.00;153732.59;5008735;28;20447;-80
2022/04/07 01:43:14;;;;;;;2.27;1.83;;;;;;;9.25;100.00;153735.22;5011979;28;20447;-79
2022/04/07 01:45:51;;;;;;;1.73;1.60;;;;;;;9.22;100.00;153726.13;5007984;28;20454;-79
2022/04/07 01:48:29;;;;;;;1.90;1.70;;;;;;;9.26;100.00;153736.50;5020600;28;20454;-79
2022/04/07 01:51:28;;;;;;;1.90;1.70;;;;;;;9.27;100.00;153740.38;5010621;28;20471;-80
2022/04/07 01:54:04;;;;;;;1.40;1.20;;;;;;;9.25;100.00;153733.91;4999542;28;20531;-80
2022/04/07 01:56:43;;;;;;;3.30;1.40;;;;;;;9.18;100.00;153717.13;5026552;28;20476;-80
2022/04/07 01:59:19;;;;;;;1.60;1.23;;;;;;;9.16;100.00;153711.91;5013300;28;20886;-80
2022/04/07 02:01:55;;;;;;;1.53;1.43;;;;;;;9.15;100.00;153709.34;5021748;28;20452;-80
2022/04/07 02:04:31;;;;;;;2.37;1.30;;;;;;;9.25;100.00;153735.22;5010671;28;20496;-79
2022/04/07 02:07:06;;;;;;;1.43;1.20;;;;;;;9.15;100.00;153709.34;5004441;28;20835;-79
2022/04/07 02:09:44;;;;;;;2.00;1.40;;;;;;;9.19;100.00;153719.69;5009013;28;20472;-80
2022/04/07 02:12:22;;;;;;;1.37;1.20;;;;;;;9.19;100.00;153719.69;5013166;28;20816;-80
2022/04/07 02:14:59;;;;;;;1.33;1.20;;;;;;;9.08;100.00;153692.50;5024496;28;20922;-80
2022/04/07 02:17:35;;;;;;;3.47;1.70;;;;;;;9.06;100.00;153687.34;5024470;28;20452;-80
2022/04/07 02:20:11;;;;;;;1.40;1.00;;;;;;;9.03;100.00;153679.59;5030143;28;20938;-80
2022/04/07 02:22:47;;;;;;;2.07;1.47;;;;;;;9.05;100.00;153683.50;5027852;28;20475;-78
2022/04/07 02:25:27;;;;;;;1.60;1.40;;;;;;;9.07;100.00;153688.66;5021219;28;20471;-78
2022/04/07 02:28:04;;;;;;;3.30;1.30;;;;;;;9.00;100.00;153670.56;5007718;28;20917;-78
2022/04/07 02:30:40;;;;;;;1.80;1.40;;;;;;;9.01;100.00;153673.13;5024236;28;20502;-78
2022/04/07 02:33:16;;;;;;;1.60;1.33;;;;;;;8.99;100.00;153667.97;5007417;28;20787;-78
2022/04/07 02:35:51;;;;;;;1.40;1.00;;;;;;;8.99;100.00;153669.25;5021870;28;20451;-78
2022/04/07 02:38:28;;;;;;;2.20;1.37;;;;;;;9.00;100.00;153671.81;5021410;28;20497;-78
2022/04/07 02:41:04;;;;;;;1.53;1.20;;;;;;;9.00;100.00;153671.81;5011678;28;20455;-78
2022/04/07 02:43:41;;;;;;;1.40;1.10;;;;;;;9.01;100.00;153674.44;5026318;28;20429;-78
2022/04/07 02:46:17;;;;;;;1.20;1.00;;;;;;;9.01;100.00;153673.13;5026662;28;20791;-78
2022/04/07 02:48:52;;;;;;;1.40;1.07;;;;;;;8.98;100.00;153665.34;5028254;28;20459;-78
2022/04/07 02:51:31;;;;;;;1.90;1.40;;;;;;;8.94;100.00;153655.03;5010309;28;20448;-78
2022/04/07 02:54:06;;;;;;;2.23;1.17;;;;;;;8.93;100.00;153653.72;5005946;28;20472;-78
2022/04/07 02:56:42;;;;;;;2.03;1.20;;;;;;;8.94;100.00;153655.03;4997057;28;20550;-78
2022/04/07 02:59:19;;;;;;;1.43;0.97;;;;;;;8.96;100.00;153661.50;4995468;28;20443;-78
2022/04/07 03:01:56;;;;;;;1.63;1.10;;;;;;;8.92;100.00;153649.88;5006905;28;20443;-78
2022/04/07 03:04:32;;;;;;;1.53;1.43;;;;;;;8.94;100.00;153655.03;5009948;28;20436;-78
2022/04/07 03:07:07;;;;;;;1.20;1.00;;;;;;;8.88;100.00;153640.81;5024062;28;20448;-78
2022/04/07 03:09:43;;;;;;;1.60;1.00;;;;;;;8.88;100.00;153640.81;5010826;28;20969;-79
2022/04/07 03:12:19;;;;;;;3.00;1.03;;;;;;;8.89;100.00;153642.13;5020796;28;20506;-78
2022/04/07 03:14:56;;;;;;;1.33;1.00;;;;;;;8.90;100.00;153645.97;5022775;28;21180;-78
2022/04/07 03:17:33;;;;;;;2.63;1.27;;;;;;;8.85;100.00;153631.75;5007082;28;20546;-79
2022/04/07 03:20:09;;;;;;;2.00;0.90;;;;;;;8.87;100.00;153636.94;5005946;28;20475;-78
2022/04/07 03:22:44;;;;;;;1.07;0.80;;;;;;;8.88;100.00;153639.50;5025994;28;20472;-78
2022/04/07 03:25:29;;;;;;;1.73;0.80;;;;;;;8.82;100.00;153623.97;4999401;28;21091;-78
2022/04/07 03:28:06;;;;;;;1.10;0.70;;;;;;;8.87;100.00;153638.22;5022939;28;20918;-79
2022/04/07 03:30:43;;;;;;;1.13;1.00;;;;;;;8.84;100.00;153630.44;5010525;28;20503;-78
2022/04/07 03:33:19;;;;;;;1.30;1.00;;;;;;;8.90;100.00;153644.66;5022415;28;20470;-78
2022/04/07 03:35:55;;;;;;;3.40;1.50;;;;;;;8.86;100.00;153634.34;5018943;28;20435;-78
2022/04/07 03:38:30;;;;;;;1.33;1.10;;;;;;;8.84;100.00;153629.19;5008483;28;20443;-78
2022/04/07 03:41:16;;;;;;;1.57;1.00;;;;;;;8.86;100.00;153634.34;5006938;28;20443;-78
2022/04/07 03:43:52;;;;;;;2.70;1.40;;;;;;;8.87;100.00;153636.94;5025955;28;20450;-79
2022/04/07 03:46:29;;;;;;;1.10;0.90;;;;;;;8.86;100.00;153635.66;5009865;28;20490;-78
2022/04/07 03:49:05;;;;;;;1.30;0.90;;;;;;;8.82;100.00;153623.97;5010308;28;20435;-78
2022/04/07 03:51:40;;;;;;;1.60;1.10;;;;;;;8.84;100.00;153630.44;4993708;28;20799;-78
2022/04/07 03:54:17;;;;;;;1.50;1.10;;;;;;;8.83;100.00;153626.59;5021498;28;20451;-78
2022/04/07 03:56:53;;;;;;;1.70;1.20;;;;;;;8.83;100.00;153626.59;5020722;28;20530;-78
2022/04/07 03:59:29;;;;;;;1.33;0.83;;;;;;;8.85;100.00;153633.03;5007868;28;20911;-78
2022/04/07 04:02:13;;;;;;;1.33;0.90;;;;;;;8.72;100.00;153598.13;5026922;28;20452;-78
2022/04/07 04:04:51;;;;;;;2.03;1.33;;;;;;;8.69;100.00;153591.66;5005122;28;21012;-78
2022/04/07 04:07:28;;;;;;;1.40;1.10;;;;;;;8.67;100.00;153585.22;5008346;28;20524;-79
2022/04/07 04:10:04;;;;;;;1.53;1.10;;;;;;;8.71;100.00;153596.81;5025806;28;20460;-79
2022/04/07 04:12:40;;;;;;;1.27;1.00;;;;;;;8.69;100.00;153590.38;5027027;28;20475;-78
2022/04/07 04:15:16;;;;;;;1.97;1.27;;;;;;;8.72;100.00;153598.13;5017087;28;20447;-78
2022/04/07 04:17:53;;;;;;;1.30;1.10;;;;;;;8.62;100.00;153572.28;5026947;28;20455;-79
2022/04/07 04:20:39;;;;;;;1.67;1.20;;;;;;;8.66;100.00;153582.66;5004189;28;20443;-78
2022/04/07 04:23:14;;;;;;;1.60;1.10;;;;;;;8.65;100.00;153580.03;5015122;28;20554;-78
2022/04/07 04:25:51;;;;;;;1.40;1.17;;;;;;;8.60;100.00;153567.13;5014063;28;20514;-78
2022/04/07 04:28:28;;;;;;;1.50;1.40;;;;;;;8.65;100.00;153580.03;5009335;28;20706;-78
2022/04/07 04:31:04;;;;;;;1.60;1.20;;;;;;;8.66;100.00;153582.66;4996376;28;20803;-79
2022/04/07 04:33:41;;;;;;;1.20;0.80;;;;;;;8.66;100.00;153582.66;5012263;28;20432;-80
2022/04/07 04:36:16;;;;;;;1.37;1.03;;;;;;;8.64;100.00;153577.44;5015119;28;20467;-80
2022/04/07 04:38:52;;;;;;;1.37;0.97;;;;;;;8.69;100.00;153590.38;5015798;28;20451;-79
2022/04/07 04:41:28;;;;;;;1.13;0.80;;;;;;;8.68;100.00;153589.13;5028413;28;20452;-80
2022/04/07 04:44:04;;;;;;;1.27;0.77;;;;;;;8.67;100.00;153585.22;5007182;28;20440;-80
2022/04/07 04:46:40;;;;;;;1.30;0.90;;;;;;;8.68;100.00;153587.81;5024909;28;20476;-79
2022/04/07 04:49:17;;;;;;;1.30;1.10;;;;;;;8.64;100.00;153577.44;4997260;28;20443;-80
2022/04/07 04:51:52;;;;;;;1.20;0.97;;;;;;;8.65;100.00;153580.03;5023280;28;20447;-80
2022/04/07 04:54:28;;;;;;;1.60;1.17;;;;;;;8.70;100.00;153592.97;5008594;28;20439;-80
2022/04/07 04:57:06;;;;;;;1.37;0.80;;;;;;;8.67;100.00;153586.50;5012167;28;20949;-79
2022/04/07 04:59:41;;;;;;;1.50;0.90;;;;;;;8.71;100.00;153596.81;4997132;28;20443;-80
2022/04/07 05:02:18;;;;;;;1.33;1.00;;;;;;;8.69;100.00;153590.38;5016497;28;20765;-80
2022/04/07 05:04:55;;;;;;;1.30;1.03;;;;;;;8.69;100.00;153590.38;5009827;28;21033;-78
2022/04/07 05:07:31;;;;;;;1.50;0.90;;;;;;;8.74;100.00;153604.59;5010765;28;20487;-78
2022/04/07 05:10:08;;;;;;;1.40;0.80;;;;;;;8.72;100.00;153598.13;5010277;28;20861;-78
2022/04/07 05:12:43;;;;;;;1.53;0.87;;;;;;;8.75;100.00;153607.19;4999083;28;20534;-78
2022/04/07 05:15:20;;;;;;;1.40;0.80;;;;;;;8.76;100.00;153608.50;5014852;28;20427;-79
2022/04/07 05:17:56;;;;;;;1.10;0.73;;;;;;;8.80;100.00;153618.81;5007016;28;20440;-79
2022/04/07 05:20:33;;;;;;;2.40;1.10;;;;;;;8.82;100.00;153623.97;5030168;28;20463;-79
2022/04/07 05:23:08;;;;;;;1.30;0.70;;;;;;;8.79;100.00;153616.25;5008094;28;20807;-79
2022/04/07 05:25:45;;;;;;;1.50;0.70;;;;;;;8.79;100.00;153616.25;5013450;28;20444;-79
2022/04/07 05:28:24;;;;;;;1.10;0.83;;;;;;;8.78;100.00;153613.66;5012496;28;20447;-79
2022/04/07 05:31:00;;;;;;;1.20;0.77;;;;;;;8.76;100.00;153608.50;5013695;28;20453;-78
2022/04/07 05:33:35;;;;;;;1.40;1.10;;;;;;;8.77;100.00;153611.06;5011582;28;20448;-79
2022/04/07 05:36:12;;;;;;;1.10;0.87;;;;;;;8.75;100.00;153605.91;5011479;28;20440;-79
2022/04/07 05:38:51;;;;;;;1.20;0.80;;;;;;;8.83;100.00;153627.88;5016723;28;20488;-79
2022/04/07 05:41:28;;;;;;;0.93;0.70;;;;;;;8.90;100.00;153644.66;5020656;28;20449;-79
2022/04/07 05:44:15;;;;;;;1.57;1.00;;;;;;;8.90;100.00;153644.66;5004497;28;20428;-79
2022/04/07 05:46:51;;;;;;;1.00;0.70;;;;;;;8.86;100.00;153634.34;5025590;28;20692;-79
2022/04/07 05:49:28;;;;;;;1.43;1.07;;;;;;;8.90;99.85;153645.97;4998390;28;20541;-79
2022/04/07 05:52:06;;;;;;;1.00;0.80;;;;;;;8.98;100.00;153665.34;5024183;28;20451;-79
2022/04/07 05:54:41;;;;;;;1.27;0.80;;;;;;;8.96;100.00;153660.19;4990109;28;20455;-79
2022/04/07 05:57:17;;;;;;;1.37;0.80;;;;;;;8.98;100.00;153665.34;5026158;28;20882;-79
2022/04/07 05:59:53;;;;;;;1.10;0.70;;;;;;;9.16;100.00;153713.22;5005242;28;20435;-79
2022/04/07 06:02:29;;;;;;;1.13;0.57;;;;;;;9.46;98.03;153789.53;5012526;28;20580;-79
2022/04/07 06:05:06;;;;;;;1.00;0.63;;;;;;;9.86;99.00;153891.75;5027766;28;20479;-79
2022/04/07 06:07:46;;;;;;;1.33;0.60;;;;;;;10.22;95.76;153983.66;5006438;28;20489;-79
2022/04/07 06:10:21;;;;;;;1.07;0.43;;;;;;;10.43;92.68;154038.09;5017641;28;20471;-79
2022/04/07 06:12:57;;;;;;;1.53;0.70;;;;;;;10.37;92.63;154022.53;5026524;28;20453;-80
2022/04/07 06:15:33;;;;;;;1.10;0.50;;;;;;;10.30;93.65;154004.38;5017411;28;20965;-79
2022/04/07 06:18:08;;;;;;;0.80;0.50;;;;;;;10.31;92.44;154007.00;5007174;28;20513;-79
2022/04/07 06:20:46;;;;;;;1.10;0.50;;;;;;;10.22;91.95;153984.97;5023815;28;20542;-79
2022/04/07 06:23:24;;;;;;;2.43;0.73;;;;;;;10.22;93.38;153984.97;4997821;28;20468;-79
2022/04/07 06:26:00;;;;;;;1.30;0.50;;;;;;;10.27;93.06;153996.66;5027716;28;20428;-79
2022/04/07 06:28:36;;;;;;;0.90;0.70;;;;;;;10.31;93.51;154007.00;5026942;28;20451;-79
2022/04/07 06:31:11;;;;;;;1.17;0.60;;;;;;;10.28;90.35;153999.22;4997127;28;20463;-79
2022/04/07 06:33:47;;;;;;;1.17;0.67;;;;;;;10.23;92.01;153986.28;5009769;28;20436;-79
2022/04/07 06:36:32;;;;;;;1.20;0.47;;;;;;;10.20;90.18;153978.50;5017591;28;20440;-79
2022/04/07 06:39:09;;;;;;;1.87;0.50;;;;;;;10.17;90.14;153970.72;5010922;28;20531;-79
2022/04/07 06:41:44;;;;;;;0.87;0.50;;;;;;;10.09;92.19;153949.97;5012746;28;20533;-79
2022/04/07 06:44:21;;;;;;;0.87;0.40;;;;;;;10.08;90.39;153947.41;5027250;28;20439;-79
2022/04/07 06:46:56;;;;;;;1.10;0.57;;;;;;;10.07;90.73;153946.09;5027249;28;20942;-79
2022/04/07 06:49:32;;;;;;;0.77;0.40;;;;;;;10.11;90.21;153955.19;5011829;28;20531;-79
2022/04/07 06:52:08;;;;;;;1.43;0.80;;;;;;;10.05;92.72;153940.94;5027809;28;20447;-79
2022/04/07 06:54:45;;;;;;;0.90;0.37;;;;;;;10.04;90.23;153937.03;5028742;28;20447;-79
2022/04/07 06:57:20;;;;;;;1.10;0.60;;;;;;;10.04;92.26;153937.03;5011800;28;20884;-79
2022/04/07 06:59:56;;;;;;;0.90;0.50;;;;;;;10.03;92.16;153934.47;5018149;28;20855;-79
2022/04/07 07:02:32;;;;;;;0.80;0.40;;;;;;;9.99;92.54;153925.38;5006419;28;20455;-79
2022/04/07 07:05:08;;;;;;;0.70;0.30;;;;;;;9.96;90.98;153916.31;5012455;28;20431;-78
2022/04/07 07:07:45;;;;;;;0.90;0.43;;;;;;;9.94;91.71;153912.47;5025067;28;20838;-78
2022/04/07 07:10:23;;;;;;;1.17;0.70;;;;;;;9.93;89.73;153908.59;5016403;28;20555;-78
2022/04/07 07:12:59;;;;;;;0.80;0.50;;;;;;;9.95;94.02;153913.75;4993136;28;20674;-78
2022/04/07 07:15:35;;;;;;;0.80;0.40;;;;;;;10.02;90.90;153933.16;5011685;28;20475;-78
2022/04/07 07:18:11;;;;;;;0.80;0.47;;;;;;;10.03;92.70;153935.78;5026357;28;20431;-79
2022/04/07 07:20:46;;;;;;;1.27;0.57;;;;;;;10.04;89.96;153937.03;5012894;28;20555;-79
2022/04/07 07:23:22;;;;;;;0.90;0.50;;;;;;;10.12;88.93;153959.09;5015406;28;20511;-79
2022/04/07 07:25:59;;;;;;;1.10;0.53;;;;;;;10.13;90.80;153960.41;5011817;28;20439;-79
2022/04/07 07:28:35;;;;;;;1.83;0.80;;;;;;;10.16;88.66;153968.16;5011343;28;20458;-79
2022/04/07 07:31:11;;;;;;;1.20;0.50;;;;;;;10.17;90.88;153972.03;5005625;28;20497;-79
2022/04/07 07:33:46;;;;;;;1.10;0.50;;;;;;;10.25;91.06;153991.44;5007799;28;20436;-79
2022/04/07 07:36:22;;;;;;;1.37;0.40;;;;;;;10.31;89.44;154008.28;5028886;28;20431;-79
2022/04/07 07:38:57;;;;;;;1.00;0.50;;;;;;;10.35;91.37;154017.38;4992120;28;20459;-79
2022/04/07 07:41:36;;;;;;;1.03;0.60;;;;;;;10.48;87.59;154051.03;5009257;28;20451;-79
2022/04/07 07:44:12;;;;;;;1.00;0.50;;;;;;;10.56;88.91;154071.75;5006099;28;20443;-79
2022/04/07 07:46:47;;;;;;;1.73;0.50;;;;;;;10.68;88.74;154101.50;5008928;28;20460;-79
2022/04/07 07:49:23;;;;;;;0.80;0.40;;;;;;;10.74;90.21;154118.34;5005838;28;20431;-79
2022/04/07 07:51:58;;;;;;;1.20;0.63;;;;;;;10.87;89.62;154150.72;4994862;28;20967;-79
2022/04/07 07:54:34;;;;;;;0.93;0.53;;;;;;;10.94;88.32;154170.13;5025752;28;20460;-79
2022/04/07 07:57:11;;;;;;;0.90;0.50;;;;;;;10.98;89.29;154180.53;5024122;28;20455;-79
2022/04/07 07:59:47;;;;;;;0.80;0.30;;;;;;;11.04;86.19;154193.47;5010843;28;20812;-79
2022/04/07 08:02:22;;;;;;;1.83;0.57;;;;;;;10.93;86.48;154167.53;5028426;28;20447;-79
2022/04/07 08:04:57;;;;;;;1.50;0.60;;;;;;;10.98;84.72;154179.22;5021980;28;20439;-79
2022/04/07 08:07:33;;;;;;;1.30;0.70;;;;;;;10.99;85.97;154183.09;5008716;28;20922;-79
2022/04/07 08:10:09;;;;;;;1.10;0.63;;;;;;;11.06;86.25;154199.94;5010823;28;20563;-79
2022/04/07 08:12:46;;;;;;;1.67;0.40;;;;;;;11.01;85.72;154187.00;5011291;28;20942;-79
2022/04/07 08:15:23;;;;;;;0.80;0.40;;;;;;;11.02;83.68;154190.84;5000168;28;20440;-79
2022/04/07 08:17:58;;;;;;;0.80;0.50;;;;;;;11.11;87.09;154212.88;5033166;28;20934;-79
2022/04/07 08:20:34;;;;;;;1.33;0.57;;;;;;;11.15;86.93;154221.94;4997382;28;20439;-80
2022/04/07 08:23:09;;;;;;;1.57;0.50;;;;;;;11.15;84.94;154223.22;5030141;28;20470;-79
2022/04/07 08:25:47;;;;;;;0.77;0.40;;;;;;;11.18;82.72;154229.72;5007238;28;20456;-80
2022/04/07 08:28:29;;;;;;;0.70;0.30;;;;;;;11.25;84.31;154247.88;5019535;28;20459;-80
2022/04/07 08:31:05;;;;;;;0.97;0.57;;;;;;;11.32;85.56;154266.00;5015371;28;20499;-79
2022/04/07 08:33:40;;;;;;;1.63;0.50;;;;;;;11.32;85.95;154266.00;5024100;28;20479;-79
2022/04/07 08:36:16;;;;;;;1.93;0.50;;;;;;;11.40;83.27;154286.72;5023000;28;20444;-79
2022/04/07 08:38:51;;;;;;;1.23;0.50;;;;;;;11.44;83.22;154298.38;5025189;28;20526;-79
2022/04/07 08:41:31;;;;;;;0.70;0.30;;;;;;;11.40;84.28;154288.03;5015197;28;20456;-79
2022/04/07 08:44:08;;;;;;;1.60;0.50;;;;;;;11.44;86.53;154297.06;5024452;28;20930;-79
2022/04/07 08:46:49;;;;;;;1.17;0.43;;;;;;;11.37;82.54;154280.25;5010879;28;20451;-79
2022/04/07 08:49:26;;;;;;;2.50;0.40;;;;;;;11.40;83.42;154286.72;5031028;28;20542;-80
2022/04/07 08:52:02;;;;;;;1.23;0.60;;;;;;;11.50;82.80;154312.63;5017069;28;20471;-79
2022/04/07 08:54:37;;;;;;;0.87;0.40;;;;;;;11.54;82.81;154323.03;5014085;28;20785;-80
2022/04/07 08:57:13;;;;;;;3.17;0.40;;;;;;;11.66;82.93;154354.09;5019984;28;20810;-79
2022/04/07 08:59:50;;;;;;;1.53;0.30;;;;;;;11.68;83.31;154359.28;5023009;28;20458;-79
2022/04/07 09:02:28;;;;;;;1.17;0.70;;;;;;;11.76;79.72;154380.06;4991465;28;20450;-80
2022/04/07 09:05:03;;;;;;;1.00;0.50;;;;;;;11.76;81.19;154380.06;5026130;28;20448;-80
2022/04/07 09:07:39;;;;;;;1.00;0.50;;;;;;;11.76;79.29;154380.06;5026320;28;20997;-79
2022/04/07 09:10:19;;;;;;;0.70;0.30;;;;;;;11.72;83.92;154369.72;5024293;28;20439;-80
2022/04/07 09:13:05;;;;;;;0.67;0.30;;;;;;;11.69;81.93;154361.94;5001864;28;20448;-79
2022/04/07 09:15:52;;;;;;;2.20;0.80;;;;;;;11.76;79.51;154380.06;5026140;28;20538;-79
2022/04/07 09:18:27;;;;;;;2.97;0.70;;;;;;;11.75;80.49;154376.19;5027863;28;20456;-79
2022/04/07 09:21:03;;;;;;;1.33;0.30;;;;;;;11.74;80.52;154374.88;4996067;28;20997;-79
2022/04/07 09:23:39;;;;;;;1.43;0.37;;;;;;;11.74;79.44;154374.88;5029448;28;20578;-79
2022/04/07 09:26:15;;;;;;;2.00;0.30;;;;;;;11.74;78.08;154373.59;4994138;28;20487;-79
2022/04/07 09:28:56;;;;;;;0.77;0.30;;;;;;;11.76;81.38;154380.06;5028235;28;20460;-80
2022/04/07 09:31:37;;;;;;;0.87;0.30;;;;;;;11.81;78.36;154393.00;5027135;28;20475;-79
2022/04/07 09:34:13;;;;;;;0.60;0.27;;;;;;;11.86;79.90;154404.72;5026394;28;20440;-79
2022/04/07 09:37:03;;;;;;;0.73;0.27;;;;;;;11.86;79.97;154404.72;5007837;28;20459;-79
2022/04/07 09:39:39;;;;;;;2.70;0.47;;;;;;;11.77;79.95;154382.66;5022855;28;20449;-79
2022/04/07 09:42:20;;;;;;;1.83;0.40;;;;;;;11.76;82.93;154378.75;5031639;28;20443;-79
2022/04/07 09:44:59;;;;;;;0.80;0.30;;;;;;;11.77;85.37;154382.66;5012871;28;20542;-79
2022/04/07 09:47:37;;;;;;;1.93;0.40;;;;;;;11.74;85.51;154374.88;5023094;28;20484;-79
2022/04/07 09:50:21;;;;;;;0.70;0.40;;;;;;;11.67;82.62;154355.41;5012522;28;20869;-79
2022/04/07 09:52:57;;;;;;;1.93;0.60;;;;;;;11.68;83.63;154357.97;5012218;28;21032;-79
2022/04/07 09:55:35;;;;;;;1.20;0.67;;;;;;;11.69;85.17;154360.63;5006326;28;20727;-80
2022/04/07 09:58:14;;;;;;;0.83;0.50;;;;;;;11.80;85.94;154390.44;5009694;28;20539;-79
2022/04/07 10:00:50;;;;;;;0.80;0.30;;;;;;;11.91;86.01;154418.97;5010832;28;20436;-79
2022/04/07 10:03:31;;;;;;;0.70;0.40;;;;;;;12.17;83.10;154486.38;5008649;28;20510;-79
2022/04/07 10:06:07;;;;;;;0.70;0.40;;;;;;;12.29;81.13;154514.84;5012340;28;20530;-79
2022/04/07 10:08:43;;;;;;;1.80;0.80;;;;;;;12.37;83.76;154536.91;5009728;28;20533;-79
2022/04/07 10:11:19;;;;;;;2.40;0.50;;;;;;;12.48;81.82;154564.16;5025071;28;20542;-79
2022/04/07 10:13:56;;;;;;;1.10;0.50;;;;;;;12.47;80.54;154562.84;5027757;28;20526;-79
2022/04/07 10:16:32;;;;;;;2.37;0.40;;;;;;;12.52;79.04;154574.53;5012280;28;20546;-79
2022/04/07 10:19:13;;;;;;;1.30;0.40;;;;;;;12.58;80.77;154590.06;5009268;28;20440;-79
2022/04/07 10:22:01;;;;;;;2.60;0.50;;;;;;;12.63;77.85;154603.03;5020713;28;20487;-79
2022/04/07 10:24:38;;;;;;;1.23;0.50;;;;;;;12.63;78.34;154604.34;5027555;28;20476;-79
2022/04/07 10:27:23;;;;;;;0.80;0.40;;;;;;;12.64;77.03;154605.66;5027060;28;20550;-79
2022/04/07 10:30:05;;;;;;;0.80;0.30;;;;;;;12.69;76.22;154619.91;4995417;28;20443;-77
2022/04/07 10:32:42;;;;;;;0.87;0.40;;;;;;;12.70;78.67;154621.22;5008854;28;20472;-77
2022/04/07 10:35:37;;;;;;;0.73;0.40;;;;;;;12.69;78.58;154618.63;5012862;28;20428;-77
2022/04/07 10:38:14;;;;;;;0.80;0.40;;;;;;;12.76;76.53;154638.06;5009869;28;20451;-79
2022/04/07 10:40:54;;;;;;;0.80;0.40;;;;;;;12.74;78.53;154631.56;5027216;28;20534;-79
2022/04/07 10:43:30;;;;;;;1.10;0.30;;;;;;;12.83;76.87;154654.94;5028169;28;20445;-79
2022/04/07 10:46:11;;;;;;;1.63;0.30;;;;;;;12.75;77.99;154634.19;5012300;28;20763;-78
2022/04/07 10:48:51;;;;;;;0.80;0.50;;;;;;;12.75;79.00;154634.19;5007275;28;20463;-79
2022/04/07 10:51:43;;;;;;;2.40;0.37;;;;;;;12.82;78.37;154652.31;5011228;28;20463;-77
2022/04/07 10:54:19;;;;;;;0.60;0.30;;;;;;;12.80;81.02;154647.16;5011993;28;20443;-77
2022/04/07 10:56:56;;;;;;;0.60;0.30;;;;;;;12.95;79.93;154686.06;5012321;28;20532;-78
2022/04/07 10:59:34;;;;;;;1.17;0.30;;;;;;;13.02;75.19;154704.25;5012211;28;20440;-77
2022/04/07 11:02:12;;;;;;;0.80;0.20;;;;;;;13.13;77.34;154731.53;5007760;28;20460;-78
2022/04/07 11:05:10;;;;;;;0.60;0.20;;;;;;;13.18;76.74;154744.50;5026788;28;20452;-78
2022/04/07 11:07:52;;;;;;;1.63;0.47;;;;;;;13.20;76.33;154751.00;5013459;28;20447;-78
2022/04/07 11:10:47;;;;;;;0.70;0.30;;;;;;;13.23;75.37;154757.47;5009876;28;20909;-77
2022/04/07 11:13:41;;;;;;;0.80;0.40;;;;;;;13.28;74.53;154771.75;5013404;28;20854;-77
2022/04/07 11:16:24;;;;;;;1.47;0.50;;;;;;;13.34;76.47;154786.03;5028652;28;20443;-78
2022/04/07 11:19:09;;;;;;;6.93;0.50;;;;;;;13.40;76.81;154802.88;5023831;28;20842;-78
2022/04/07 11:21:46;;;;;;;0.87;0.30;;;;;;;13.39;77.30;154800.31;5006772;28;20443;-78
2022/04/07 11:24:27;;;;;;;0.90;0.30;;;;;;;13.42;76.32;154806.81;5011114;28;20471;-77
2022/04/07 11:27:36;;;;;;;1.30;0.30;;;;;;;13.49;74.10;154823.66;5007253;28;20444;-77
2022/04/07 11:30:12;;;;;;;0.70;0.30;;;;;;;13.56;76.06;154841.78;5012756;28;20816;-78
2022/04/07 11:33:37;;;;;;;0.70;0.30;;;;;;;13.58;72.73;154847.03;5009017;28;20503;-77
2022/04/07 11:36:15;;;;;;;1.80;1.00;;;;;;;13.52;73.93;154831.44;5006722;28;20448;-78
2022/04/07 11:38:54;;;;;;;0.70;0.30;;;;;;;13.54;74.52;154836.63;5027096;28;20798;-77
2022/04/07 11:41:41;;;;;;;0.80;0.30;;;;;;;13.57;76.53;154844.41;5020097;28;20530;-77
2022/04/07 11:44:20;;;;;;;0.90;0.50;;;;;;;13.45;76.93;154813.28;5023601;28;20543;-77
2022/04/07 11:47:00;;;;;;;0.80;0.30;;;;;;;13.51;73.65;154828.81;4989312;28;20551;-78
2022/04/07 11:49:36;;;;;;;0.80;0.40;;;;;;;13.54;74.47;154837.91;5020121;28;20531;-78
2022/04/07 11:52:12;;;;;;;2.20;0.33;;;;;;;13.41;75.10;154805.50;5011943;28;20476;-78
2022/04/07 11:54:47;;;;;;;0.60;0.30;;;;;;;13.43;75.57;154810.66;5018607;28;20850;-77
2022/04/07 11:57:26;;;;;;;1.70;0.70;;;;;;;13.46;73.51;154817.16;5019769;28;20870;-78
2022/04/07 12:00:04;;;;;;;1.43;0.30;;;;;;;13.49;74.14;154824.94;5014748;28;20474;-78
2022/04/07 12:02:58;;;;;;;0.60;0.20;;;;;;;13.39;74.88;154799.00;5011930;28;20476;-78
2022/04/07 12:05:39;;;;;;;1.17;0.40;;;;;;;13.34;75.25;154786.03;5010829;28;20487;-77
2022/04/07 12:08:16;;;;;;;0.70;0.30;;;;;;;13.28;74.97;154771.75;5027139;28;20467;-78
2022/04/07 12:10:52;;;;;;;2.40;0.30;;;;;;;13.28;76.12;154771.75;5003435;28;20443;-78
2022/04/07 12:13:29;;;;;;;0.97;0.30;;;;;;;13.17;78.95;154741.91;5027665;28;20522;-77